sensor_id;sensor_type;location;lat;lon;timestamp;pressure;altitude;pressure_sealevel;temperature;humidity
68634;BME280;55625;47.072;22.192;2023-04-03T00:03:55;99406.91;;;6.17;95.15
68634;BME280;55625;47.072;22.192;2023-04-03T00:06:22;99404.59;;;6.12;95.48
68634;BME280;55625;47.072;22.192;2023-04-03T00:08:48;99404.59;;;6.12;96.18
68634;BME280;55625;47.072;22.192;2023-04-03T00:11:15;99406.97;;;6.14;95.00
68634;BME280;55625;47.072;22.192;2023-04-03T00:13:41;99403.75;;;6.12;95.75
68634;BME280;55625;47.072;22.192;2023-04-03T00:16:09;99405.00;;;6.11;95.96
68634;BME280;55625;47.072;22.192;2023-04-03T00:18:37;99408.56;;;6.15;97.15
68634;BME280;55625;47.072;22.192;2023-04-03T00:21:04;99415.41;;;6.14;95.38
68634;BME280;55625;47.072;22.192;2023-04-03T00:23:30;99408.25;;;6.09;95.60
68634;BME280;55625;47.072;22.192;2023-04-03T00:25:56;99418.34;;;6.07;96.27
68634;BME280;55625;47.072;22.192;2023-04-03T00:28:22;99409.16;;;6.03;95.89
68634;BME280;55625;47.072;22.192;2023-04-03T00:30:51;99397.47;;;6.04;95.63
68634;BME280;55625;47.072;22.192;2023-04-03T00:33:17;99406.00;;;6.01;95.89
68634;BME280;55625;47.072;22.192;2023-04-03T00:35:48;99409.16;;;6.03;96.08
68634;BME280;55625;47.072;22.192;2023-04-03T00:38:15;99404.69;;;6.05;96.32
68634;BME280;55625;47.072;22.192;2023-04-03T00:40:47;99402.25;;;6.07;95.07
68634;BME280;55625;47.072;22.192;2023-04-03T00:43:22;99404.91;;;5.95;94.80
68634;BME280;55625;47.072;22.192;2023-04-03T00:45:54;99409.81;;;5.90;94.66
68634;BME280;55625;47.072;22.192;2023-04-03T00:48:28;99400.84;;;5.96;94.17
68634;BME280;55625;47.072;22.192;2023-04-03T00:50:55;99408.16;;;5.93;94.85
68634;BME280;55625;47.072;22.192;2023-04-03T00:53:52;99409.81;;;5.90;95.00
68634;BME280;55625;47.072;22.192;2023-04-03T00:56:23;99399.38;;;5.87;94.68
68634;BME280;55625;47.072;22.192;2023-04-03T00:58:56;99410.59;;;5.91;94.83
68634;BME280;55625;47.072;22.192;2023-04-03T01:01:27;99416.38;;;5.80;94.69
68634;BME280;55625;47.072;22.192;2023-04-03T01:03:53;99422.41;;;5.82;94.00
68634;BME280;55625;47.072;22.192;2023-04-03T01:06:35;99418.03;;;5.78;94.41
68634;BME280;55625;47.072;22.192;2023-04-03T01:09:03;99422.00;;;5.80;94.79
68634;BME280;55625;47.072;22.192;2023-04-03T01:11:29;99424.81;;;5.80;94.56
68634;BME280;55625;47.072;22.192;2023-04-03T01:13:55;99424.41;;;5.82;94.34
68634;BME280;55625;47.072;22.192;2023-04-03T01:16:21;99427.75;;;5.73;95.19
68634;BME280;55625;47.072;22.192;2023-04-03T01:18:47;99429.00;;;5.72;95.55
68634;BME280;55625;47.072;22.192;2023-04-03T01:24:35;99423.34;;;5.72;95.17
68634;BME280;55625;47.072;22.192;2023-04-03T01:27:05;99421.34;;;5.73;95.22
68634;BME280;55625;47.072;22.192;2023-04-03T01:29:32;99423.34;;;5.72;95.62
68634;BME280;55625;47.072;22.192;2023-04-03T01:32:00;99430.22;;;5.71;95.50
68634;BME280;55625;47.072;22.192;2023-04-03T01:34:28;99423.78;;;5.71;95.58
68634;BME280;55625;47.072;22.192;2023-04-03T01:36:55;99429.78;;;5.73;94.98
68634;BME280;55625;47.072;22.192;2023-04-03T01:39:21;99426.53;;;5.74;95.16
68634;BME280;55625;47.072;22.192;2023-04-03T01:41:48;99429.34;;;5.74;94.61
68634;BME280;55625;47.072;22.192;2023-04-03T01:44:14;99428.19;;;5.72;96.11
68634;BME280;55625;47.072;22.192;2023-04-03T01:46:41;99423.41;;;5.69;95.70
68634;BME280;55625;47.072;22.192;2023-04-03T01:49:08;99424.66;;;5.68;95.76
68634;BME280;55625;47.072;22.192;2023-04-03T01:51:34;99430.22;;;5.71;96.06
68634;BME280;55625;47.072;22.192;2023-04-03T01:54:00;99431.88;;;5.69;97.64
68634;BME280;55625;47.072;22.192;2023-04-03T01:56:26;99433.59;;;5.63;98.38
68634;BME280;55625;47.072;22.192;2023-04-03T01:58:52;99428.38;;;5.61;97.76
68634;BME280;55625;47.072;22.192;2023-04-03T02:01:18;99428.75;;;5.63;98.61
68634;BME280;55625;47.072;22.192;2023-04-03T02:03:44;99442.09;;;5.59;98.69
68634;BME280;55625;47.072;22.192;2023-04-03T02:06:10;99439.78;;;5.50;100.00
68634;BME280;55625;47.072;22.192;2023-04-03T02:08:36;99437.41;;;5.49;100.00
68634;BME280;55625;47.072;22.192;2023-04-03T02:11:02;99441.50;;;5.44;100.00
68634;BME280;55625;47.072;22.192;2023-04-03T02:13:28;99442.78;;;5.40;100.00
68634;BME280;55625;47.072;22.192;2023-04-03T02:15:53;99427.13;;;5.39;100.00
68634;BME280;55625;47.072;22.192;2023-04-03T02:18:20;99438.06;;;5.33;100.00
68634;BME280;55625;47.072;22.192;2023-04-03T02:20:46;99440.44;;;5.35;100.00
68634;BME280;55625;47.072;22.192;2023-04-03T02:23:12;99435.69;;;5.32;100.00
68634;BME280;55625;47.072;22.192;2023-04-03T02:25:38;99448.53;;;5.33;100.00
68634;BME280;55625;47.072;22.192;2023-04-03T02:28:04;99455.84;;;5.26;100.00
68634;BME280;55625;47.072;22.192;2023-04-03T02:30:30;99448.69;;;5.22;100.00
68634;BME280;55625;47.072;22.192;2023-04-03T02:32:56;99452.63;;;5.28;100.00
68634;BME280;55625;47.072;22.192;2023-04-03T02:35:22;99451.81;;;5.27;100.00
68634;BME280;55625;47.072;22.192;2023-04-03T02:37:48;99452.81;;;5.14;100.00
68634;BME280;55625;47.072;22.192;2023-04-03T02:40:14;99458.50;;;5.10;100.00
68634;BME280;55625;47.072;22.192;2023-04-03T02:42:40;99452.13;;;5.06;100.00
68634;BME280;55625;47.072;22.192;2023-04-03T02:45:06;99446.88;;;5.08;100.00
68634;BME280;55625;47.072;22.192;2023-04-03T02:47:32;99448.47;;;5.09;100.00
68634;BME280;55625;47.072;22.192;2023-04-03T02:49:58;99452.06;;;5.10;100.00
68634;BME280;55625;47.072;22.192;2023-04-03T02:52:24;99452.44;;;5.12;100.00
68634;BME280;55625;47.072;22.192;2023-04-03T02:54:50;99464.47;;;5.12;100.00
68634;BME280;55625;47.072;22.192;2023-04-03T02:57:16;99456.94;;;5.06;100.00
68634;BME280;55625;47.072;22.192;2023-04-03T02:59:42;99453.75;;;5.04;100.00
68634;BME280;55625;47.072;22.192;2023-04-03T03:02:08;99457.19;;;4.88;100.00
68634;BME280;55625;47.072;22.192;2023-04-03T03:04:35;99452.50;;;4.78;100.00
68634;BME280;55625;47.072;22.192;2023-04-03T03:07:01;99453.00;;;4.69;100.00
68634;BME280;55625;47.072;22.192;2023-04-03T03:09:27;99461.81;;;4.71;100.00
68634;BME280;55625;47.072;22.192;2023-04-03T03:11:53;99460.66;;;4.68;100.00
68634;BME280;55625;47.072;22.192;2023-04-03T03:14:19;99462.72;;;4.64;100.00
68634;BME280;55625;47.072;22.192;2023-04-03T03:16:45;99455.97;;;4.55;100.00
68634;BME280;55625;47.072;22.192;2023-04-03T03:19:11;99465.59;;;4.57;100.00
68634;BME280;55625;47.072;22.192;2023-04-03T03:21:37;99462.34;;;4.62;100.00
68634;BME280;55625;47.072;22.192;2023-04-03T03:24:03;99461.53;;;4.62;100.00
68634;BME280;55625;47.072;22.192;2023-04-03T03:26:29;99468.75;;;4.63;100.00
68634;BME280;55625;47.072;22.192;2023-04-03T03:28:55;99464.72;;;4.64;100.00
68634;BME280;55625;47.072;22.192;2023-04-03T03:31:21;99472.78;;;4.62;100.00
68634;BME280;55625;47.072;22.192;2023-04-03T03:33:47;99467.59;;;4.57;100.00
68634;BME280;55625;47.072;22.192;2023-04-03T03:36:13;99467.19;;;4.58;100.00
68634;BME280;55625;47.072;22.192;2023-04-03T03:38:38;99466.81;;;4.56;100.00
68634;BME280;55625;47.072;22.192;2023-04-03T03:41:05;99467.13;;;4.65;100.00
68634;BME280;55625;47.072;22.192;2023-04-03T03:43:31;99462.34;;;4.62;100.00
68634;BME280;55625;47.072;22.192;2023-04-03T03:45:56;99455.91;;;4.62;100.00
68634;BME280;55625;47.072;22.192;2023-04-03T03:48:22;99453.53;;;4.60;100.00
68634;BME280;55625;47.072;22.192;2023-04-03T03:50:49;99453.47;;;4.64;100.00
68634;BME280;55625;47.072;22.192;2023-04-03T03:53:15;99458.69;;;4.65;100.00
68634;BME280;55625;47.072;22.192;2023-04-03T03:55:41;99462.72;;;4.64;100.00
68634;BME280;55625;47.072;22.192;2023-04-03T03:58:07;99468.75;;;4.63;100.00
68634;BME280;55625;47.072;22.192;2023-04-03T04:00:33;99473.63;;;4.55;100.00
68634;BME280;55625;47.072;22.192;2023-04-03T04:02:59;99473.59;;;4.59;100.00
68634;BME280;55625;47.072;22.192;2023-04-03T04:05:25;99479.22;;;4.59;100.00
68634;BME280;55625;47.072;22.192;2023-04-03T04:07:51;99476.50;;;4.52;100.00
68634;BME280;55625;47.072;22.192;2023-04-03T04:10:17;99469.66;;;4.53;100.00
68634;BME280;55625;47.072;22.192;2023-04-03T04:12:42;99479.25;;;4.55;100.00
68634;BME280;55625;47.072;22.192;2023-04-03T04:15:09;99477.59;;;4.61;100.00
68634;BME280;55625;47.072;22.192;2023-04-03T04:17:35;99476.00;;;4.60;100.00
68634;BME280;55625;47.072;22.192;2023-04-03T04:20:03;99471.97;;;4.61;100.00
68634;BME280;55625;47.072;22.192;2023-04-03T04:22:30;99477.25;;;4.56;100.00
68634;BME280;55625;47.072;22.192;2023-04-03T04:24:56;99484.50;;;4.53;100.00
68634;BME280;55625;47.072;22.192;2023-04-03T04:27:22;99489.31;;;4.53;100.00
68634;BME280;55625;47.072;22.192;2023-04-03T04:29:48;99484.16;;;4.48;100.00
68634;BME280;55625;47.072;22.192;2023-04-03T04:32:14;99482.56;;;4.47;100.00
68634;BME280;55625;47.072;22.192;2023-04-03T04:34:40;99479.38;;;4.45;100.00
68634;BME280;55625;47.072;22.192;2023-04-03T04:37:06;99482.69;;;4.36;100.00
68634;BME280;55625;47.072;22.192;2023-04-03T04:39:31;99488.78;;;4.31;100.00
68634;BME280;55625;47.072;22.192;2023-04-03T04:41:57;99482.78;;;4.25;100.00
68634;BME280;55625;47.072;22.192;2023-04-03T04:44:23;99487.56;;;4.32;100.00
68634;BME280;55625;47.072;22.192;2023-04-03T04:46:49;99495.56;;;4.33;100.00
68634;BME280;55625;47.072;22.192;2023-04-03T04:49:15;99492.38;;;4.31;100.00
68634;BME280;55625;47.072;22.192;2023-04-03T04:51:41;99489.16;;;4.33;100.00
68634;BME280;55625;47.072;22.192;2023-04-03T04:54:06;99491.22;;;4.29;100.00
68634;BME280;55625;47.072;22.192;2023-04-03T04:56:32;99490.00;;;4.26;100.00
68634;BME280;55625;47.072;22.192;2023-04-03T04:58:58;99505.69;;;4.24;100.00
68634;BME280;55625;47.072;22.192;2023-04-03T05:01:24;99501.22;;;4.30;100.00
68634;BME280;55625;47.072;22.192;2023-04-03T05:03:50;99506.84;;;4.30;100.00
68634;BME280;55625;47.072;22.192;2023-04-03T05:06:16;99501.97;;;4.34;100.00
68634;BME280;55625;47.072;22.192;2023-04-03T05:08:42;99510.38;;;4.38;100.00
68634;BME280;55625;47.072;22.192;2023-04-03T05:11:07;99509.97;;;4.39;100.00
68634;BME280;55625;47.072;22.192;2023-04-03T05:13:33;99508.28;;;4.45;100.00
68634;BME280;55625;47.072;22.192;2023-04-03T05:15:59;99500.16;;;4.54;100.00
68634;BME280;55625;47.072;22.192;2023-04-03T05:18:25;99508.25;;;4.49;100.00
68634;BME280;55625;47.072;22.192;2023-04-03T05:20:51;99505.84;;;4.47;100.00
68634;BME280;55625;47.072;22.192;2023-04-03T05:23:17;99509.78;;;4.53;100.00
68634;BME280;55625;47.072;22.192;2023-04-03T05:25:43;99508.81;;;4.71;99.45
68634;BME280;55625;47.072;22.192;2023-04-03T05:28:11;99517.00;;;4.92;98.07
68634;BME280;55625;47.072;22.192;2023-04-03T05:30:37;99521.63;;;5.06;98.25
68634;BME280;55625;47.072;22.192;2023-04-03T05:33:03;99519.38;;;4.93;96.81
68634;BME280;55625;47.072;22.192;2023-04-03T05:35:29;99525.06;;;4.86;97.17
68634;BME280;55625;47.072;22.192;2023-04-03T05:37:55;99535.16;;;4.84;97.78
68634;BME280;55625;47.072;22.192;2023-04-03T05:40:21;99528.63;;;4.94;96.18
68634;BME280;55625;47.072;22.192;2023-04-03T05:42:47;99532.50;;;5.04;95.86
68634;BME280;55625;47.072;22.192;2023-04-03T05:45:12;99527.59;;;5.11;95.17
68634;BME280;55625;47.072;22.192;2023-04-03T05:47:38;99536.75;;;5.15;95.33
68634;BME280;55625;47.072;22.192;2023-04-03T05:50:05;99526.41;;;5.09;95.14
68634;BME280;55625;47.072;22.192;2023-04-03T05:52:35;99540.63;;;4.98;96.22
68634;BME280;55625;47.072;22.192;2023-04-03T05:55:03;99537.34;;;5.03;98.02
68634;BME280;55625;47.072;22.192;2023-04-03T05:57:28;99534.69;;;5.19;95.97
68634;BME280;55625;47.072;22.192;2023-04-03T05:59:54;99539.31;;;5.37;96.18
68634;BME280;55625;47.072;22.192;2023-04-03T06:02:23;99537.59;;;5.43;94.45
68634;BME280;55625;47.072;22.192;2023-04-03T06:04:50;99532.88;;;5.36;93.73
68634;BME280;55625;47.072;22.192;2023-04-03T06:07:22;99553.75;;;5.39;93.76
68634;BME280;55625;47.072;22.192;2023-04-03T06:09:52;99549.19;;;5.18;92.65
68634;BME280;55625;47.072;22.192;2023-04-03T06:12:19;99551.31;;;5.10;90.85
68634;BME280;55625;47.072;22.192;2023-04-03T06:14:45;99546.53;;;5.38;90.10
68634;BME280;55625;47.072;22.192;2023-04-03T06:17:11;99542.00;;;5.44;91.09
68634;BME280;55625;47.072;22.192;2023-04-03T06:19:38;99552.16;;;5.38;89.64
68634;BME280;55625;47.072;22.192;2023-04-03T06:22:04;99550.06;;;5.72;89.24
68634;BME280;55625;47.072;22.192;2023-04-03T06:24:30;99556.94;;;5.98;90.10
68634;BME280;55625;47.072;22.192;2023-04-03T06:26:57;99564.00;;;6.33;88.27
68634;BME280;55625;47.072;22.192;2023-04-03T06:29:24;99557.25;;;6.50;85.01
68634;BME280;55625;47.072;22.192;2023-04-03T06:31:50;99566.31;;;6.15;85.91
68634;BME280;55625;47.072;22.192;2023-04-03T06:34:17;99553.81;;;5.93;87.47
68634;BME280;55625;47.072;22.192;2023-04-03T06:36:44;99565.06;;;5.93;87.98
68634;BME280;55625;47.072;22.192;2023-04-03T06:39:16;99571.09;;;6.18;90.38
68634;BME280;55625;47.072;22.192;2023-04-03T06:41:43;99560.63;;;6.18;85.36
68634;BME280;55625;47.072;22.192;2023-04-03T06:44:08;99567.91;;;6.16;85.41
68634;BME280;55625;47.072;22.192;2023-04-03T06:46:37;99575.47;;;5.96;86.25
68634;BME280;55625;47.072;22.192;2023-04-03T06:49:04;99566.41;;;6.08;86.67
68634;BME280;55625;47.072;22.192;2023-04-03T06:51:33;99564.16;;;6.69;85.35
68634;BME280;55625;47.072;22.192;2023-04-03T06:54:01;99571.72;;;6.52;84.56
68634;BME280;55625;47.072;22.192;2023-04-03T06:56:27;99561.66;;;6.51;84.27
68634;BME280;55625;47.072;22.192;2023-04-03T06:58:54;99582.78;;;6.87;87.36
68634;BME280;55625;47.072;22.192;2023-04-03T07:01:21;99578.53;;;7.18;82.78
68634;BME280;55625;47.072;22.192;2023-04-03T07:03:49;99579.16;;;7.65;81.63
68634;BME280;55625;47.072;22.192;2023-04-03T07:06:16;99572.53;;;7.72;82.65
68634;BME280;55625;47.072;22.192;2023-04-03T07:08:44;99585.06;;;8.39;82.75
68634;BME280;55625;47.072;22.192;2023-04-03T07:11:11;99581.63;;;8.48;79.72
68634;BME280;55625;47.072;22.192;2023-04-03T07:13:37;99587.63;;;8.66;78.32
68634;BME280;55625;47.072;22.192;2023-04-03T07:16:04;99578.63;;;9.00;79.61
68634;BME280;55625;47.072;22.192;2023-04-03T07:18:32;99590.97;;;9.07;76.66
68634;BME280;55625;47.072;22.192;2023-04-03T07:20:59;99589.84;;;8.43;78.65
68634;BME280;55625;47.072;22.192;2023-04-03T07:23:25;99582.06;;;8.30;78.69
68634;BME280;55625;47.072;22.192;2023-04-03T07:25:51;99588.13;;;7.96;78.43
68634;BME280;55625;47.072;22.192;2023-04-03T07:28:19;99593.31;;;7.62;79.79
68634;BME280;55625;47.072;22.192;2023-04-03T07:30:48;99595.78;;;7.00;80.54
68634;BME280;55625;47.072;22.192;2023-04-03T07:33:17;99598.13;;;7.05;78.91
68634;BME280;55625;47.072;22.192;2023-04-03T07:35:44;99597.16;;;7.71;80.54
68634;BME280;55625;47.072;22.192;2023-04-03T07:38:11;99593.28;;;7.82;79.82
68634;BME280;55625;47.072;22.192;2023-04-03T07:40:38;99593.81;;;8.45;77.55
68634;BME280;55625;47.072;22.192;2023-04-03T07:43:04;99594.94;;;8.31;76.98
68634;BME280;55625;47.072;22.192;2023-04-03T07:45:31;99612.00;;;8.77;77.64
68634;BME280;55625;47.072;22.192;2023-04-03T07:47:57;99604.78;;;8.59;76.60
68634;BME280;55625;47.072;22.192;2023-04-03T07:50:23;99601.59;;;8.57;76.03
68634;BME280;55625;47.072;22.192;2023-04-03T07:52:49;99600.75;;;8.24;77.03
68634;BME280;55625;47.072;22.192;2023-04-03T07:55:16;99605.19;;;7.73;76.15
68634;BME280;55625;47.072;22.192;2023-04-03T07:57:42;99592.31;;;7.72;78.85
68634;BME280;55625;47.072;22.192;2023-04-03T08:00:09;99595.06;;;7.92;79.78
68634;BME280;55625;47.072;22.192;2023-04-03T08:02:35;99596.47;;;7.84;78.45
68634;BME280;55625;47.072;22.192;2023-04-03T08:05:01;99602.66;;;7.78;77.19
68634;BME280;55625;47.072;22.192;2023-04-03T08:07:27;99602.72;;;7.75;74.84
68634;BME280;55625;47.072;22.192;2023-04-03T08:09:52;99608.38;;;7.75;77.02
68634;BME280;55625;47.072;22.192;2023-04-03T08:12:18;99610.69;;;7.80;78.86
68634;BME280;55625;47.072;22.192;2023-04-03T08:14:44;99606.28;;;7.95;77.30
68634;BME280;55625;47.072;22.192;2023-04-03T08:17:10;99610.56;;;8.03;79.62
68634;BME280;55625;47.072;22.192;2023-04-03T08:19:40;99602.53;;;8.18;76.74
68634;BME280;55625;47.072;22.192;2023-04-03T08:22:06;99601.94;;;7.74;76.64
68634;BME280;55625;47.072;22.192;2023-04-03T08:24:33;99604.41;;;7.72;78.72
68634;BME280;55625;47.072;22.192;2023-04-03T08:26:59;99610.69;;;7.60;77.83
68634;BME280;55625;47.072;22.192;2023-04-03T08:29:26;99614.31;;;7.61;79.92
68634;BME280;55625;47.072;22.192;2023-04-03T08:31:52;99607.34;;;7.85;79.69
68634;BME280;55625;47.072;22.192;2023-04-03T08:34:18;99622.97;;;7.90;79.28
68634;BME280;55625;47.072;22.192;2023-04-03T08:36:45;99623.69;;;7.94;77.68
68634;BME280;55625;47.072;22.192;2023-04-03T08:39:11;99610.13;;;8.05;76.60
68634;BME280;55625;47.072;22.192;2023-04-03T08:41:43;99609.97;;;8.28;77.18
68634;BME280;55625;47.072;22.192;2023-04-03T08:45:10;99614.56;;;8.71;75.04
68634;BME280;55625;47.072;22.192;2023-04-03T08:48:00;99616.22;;;8.20;75.12
68634;BME280;55625;47.072;22.192;2023-04-03T08:50:36;99621.50;;;8.18;77.99
68634;BME280;55625;47.072;22.192;2023-04-03T08:53:05;99627.75;;;7.93;76.44
68634;BME280;55625;47.072;22.192;2023-04-03T08:55:45;99624.59;;;8.23;76.05
68634;BME280;55625;47.072;22.192;2023-04-03T08:58:33;99625.41;;;8.07;75.24
68634;BME280;55625;47.072;22.192;2023-04-03T09:01:10;99632.72;;;8.05;76.14
68634;BME280;55625;47.072;22.192;2023-04-03T09:03:42;99624.16;;;8.08;75.54
68634;BME280;55625;47.072;22.192;2023-04-03T09:06:23;99630.34;;;8.03;76.76
68634;BME280;55625;47.072;22.192;2023-04-03T09:09:30;99637.25;;;8.19;76.59
68634;BME280;55625;47.072;22.192;2023-04-03T09:12:29;99624.50;;;8.10;75.59
68634;BME280;55625;47.072;22.192;2023-04-03T09:15:26;99631.84;;;8.08;77.22
68634;BME280;55625;47.072;22.192;2023-04-03T09:18:12;99622.94;;;8.26;77.54
68634;BME280;55625;47.072;22.192;2023-04-03T09:20:54;99617.13;;;8.33;76.42
68634;BME280;55625;47.072;22.192;2023-04-03T09:23:49;99623.25;;;8.64;75.58
68634;BME280;55625;47.072;22.192;2023-04-03T09:26:26;99620.66;;;8.86;74.57
68634;BME280;55625;47.072;22.192;2023-04-03T09:28:59;99624.56;;;8.92;76.03
68634;BME280;55625;47.072;22.192;2023-04-03T09:31:39;99625.00;;;8.90;77.03
68634;BME280;55625;47.072;22.192;2023-04-03T09:34:32;99628.19;;;8.92;73.59
68634;BME280;55625;47.072;22.192;2023-04-03T09:37:03;99629.56;;;9.00;72.65
68634;BME280;55625;47.072;22.192;2023-04-03T09:39:48;99631.25;;;8.82;73.81
68634;BME280;55625;47.072;22.192;2023-04-03T09:42:21;99635.28;;;8.68;75.51
68634;BME280;55625;47.072;22.192;2023-04-03T09:45:00;99635.59;;;8.86;72.35
68634;BME280;55625;47.072;22.192;2023-04-03T09:47:28;99634.44;;;8.84;74.34
68634;BME280;55625;47.072;22.192;2023-04-03T09:50:20;99631.94;;;9.02;71.44
68634;BME280;55625;47.072;22.192;2023-04-03T09:52:51;99636.66;;;8.76;72.13
68634;BME280;55625;47.072;22.192;2023-04-03T09:55:27;99633.25;;;8.68;74.57
68634;BME280;55625;47.072;22.192;2023-04-03T09:58:01;99629.22;;;8.82;72.83
68634;BME280;55625;47.072;22.192;2023-04-03T10:00:35;99629.22;;;8.98;71.27
68634;BME280;55625;47.072;22.192;2023-04-03T10:03:02;99630.16;;;9.37;72.21
68634;BME280;55625;47.072;22.192;2023-04-03T10:05:34;99640.28;;;8.93;71.48
68634;BME280;55625;47.072;22.192;2023-04-03T10:08:11;99643.53;;;9.08;71.59
68634;BME280;55625;47.072;22.192;2023-04-03T10:10:38;99645.19;;;9.21;71.73
68634;BME280;55625;47.072;22.192;2023-04-03T10:13:13;99646.94;;;9.15;72.72
68634;BME280;55625;47.072;22.192;2023-04-03T10:15:55;99654.53;;;9.18;70.78
68634;BME280;55625;47.072;22.192;2023-04-03T10:18:43;99651.13;;;9.11;72.42
68634;BME280;55625;47.072;22.192;2023-04-03T10:30:42;99627.47;;;9.46;71.34
68634;BME280;55625;47.072;22.192;2023-04-03T10:33:34;99630.72;;;9.74;70.57
68634;BME280;55625;47.072;22.192;2023-04-03T10:51:34;99610.59;;;9.97;69.84
68634;BME280;55625;47.072;22.192;2023-04-03T10:56:59;99627.47;;;9.46;67.02
68634;BME280;55625;47.072;22.192;2023-04-03T10:59:59;99614.13;;;10.14;68.68
68634;BME280;55625;47.072;22.192;2023-04-03T11:02:37;99620.06;;;9.78;67.69
68634;BME280;55625;47.072;22.192;2023-04-03T11:05:45;99623.78;;;9.62;69.70
68634;BME280;55625;47.072;22.192;2023-04-03T11:11:26;99626.44;;;9.82;67.47
68634;BME280;55625;47.072;22.192;2023-04-03T11:17:07;99616.38;;;10.19;69.23
68634;BME280;55625;47.072;22.192;2023-04-03T11:23:12;99612.78;;;9.51;68.45
68634;BME280;55625;47.072;22.192;2023-04-03T11:25:41;99609.59;;;9.49;68.78
68634;BME280;55625;47.072;22.192;2023-04-03T11:28:17;99619.50;;;9.28;68.23
68634;BME280;55625;47.072;22.192;2023-04-03T11:30:55;99611.88;;;8.96;70.61
68634;BME280;55625;47.072;22.192;2023-04-03T11:33:40;99613.53;;;9.39;68.61
68634;BME280;55625;47.072;22.192;2023-04-03T11:39:26;99606.06;;;10.12;68.03
68634;BME280;55625;47.072;22.192;2023-04-03T11:41:54;99598.44;;;9.96;68.39
68634;BME280;55625;47.072;22.192;2023-04-03T11:44:35;99597.47;;;10.29;65.52
68634;BME280;55625;47.072;22.192;2023-04-03T11:47:09;99597.31;;;10.07;64.54
68634;BME280;55625;47.072;22.192;2023-04-03T11:50:05;99592.78;;;10.35;63.39
68634;BME280;55625;47.072;22.192;2023-04-03T12:00:52;99589.97;;;10.22;64.63
68634;BME280;55625;47.072;22.192;2023-04-03T12:16:33;99583.56;;;9.54;67.11
68634;BME280;55625;47.072;22.192;2023-04-03T12:29:46;99564.63;;;10.40;66.91
68634;BME280;55625;47.072;22.192;2023-04-03T12:39:02;99579.16;;;9.66;66.79
68634;BME280;55625;47.072;22.192;2023-04-03T12:42:05;99581.50;;;9.55;66.79
68634;BME280;55625;47.072;22.192;2023-04-03T12:45:09;99582.09;;;9.62;66.27
68634;BME280;55625;47.072;22.192;2023-04-03T12:47:43;99577.53;;;9.52;66.88
68634;BME280;55625;47.072;22.192;2023-04-03T12:50:28;99578.56;;;9.58;66.51
68634;BME280;55625;47.072;22.192;2023-04-03T12:53:26;99584.47;;;9.64;64.92
68634;BME280;55625;47.072;22.192;2023-04-03T12:55:57;99574.72;;;9.78;66.39
68634;BME280;55625;47.072;22.192;2023-04-03T12:58:43;99580.28;;;10.07;66.71
68634;BME280;55625;47.072;22.192;2023-04-03T13:01:18;99579.28;;;9.88;65.10
68634;BME280;55625;47.072;22.192;2023-04-03T13:03:50;99585.28;;;9.90;64.02
68634;BME280;55625;47.072;22.192;2023-04-03T13:06:27;99580.50;;;9.74;64.34
68634;BME280;55625;47.072;22.192;2023-04-03T13:08:59;99585.94;;;9.69;64.94
68634;BME280;55625;47.072;22.192;2023-04-03T13:11:32;99588.09;;;9.64;64.39
68634;BME280;55625;47.072;22.192;2023-04-03T13:14:12;99583.63;;;9.38;65.34
68634;BME280;55625;47.072;22.192;2023-04-03T13:16:39;99585.13;;;9.55;65.62
68634;BME280;55625;47.072;22.192;2023-04-03T13:19:15;99577.16;;;9.38;64.91
68634;BME280;55625;47.072;22.192;2023-04-03T13:21:42;99589.94;;;9.29;64.88
68634;BME280;55625;47.072;22.192;2023-04-03T13:24:09;99576.34;;;9.37;65.53
68634;BME280;55625;47.072;22.192;2023-04-03T13:26:36;99580.56;;;9.45;66.27
68634;BME280;55625;47.072;22.192;2023-04-03T13:29:07;99569.56;;;9.47;66.03
68634;BME280;55625;47.072;22.192;2023-04-03T13:31:38;99560.53;;;9.52;64.76
68634;BME280;55625;47.072;22.192;2023-04-03T13:34:13;99558.09;;;9.80;66.12
68634;BME280;55625;47.072;22.192;2023-04-03T13:36:58;99547.06;;;10.07;64.40
68634;BME280;55625;47.072;22.192;2023-04-03T13:39:37;99539.38;;;10.20;64.41
68634;BME280;55625;47.072;22.192;2023-04-03T13:42:30;99556.25;;;9.73;64.64
68634;BME280;55625;47.072;22.192;2023-04-03T13:45:19;99556.44;;;9.41;65.96
68634;BME280;55625;47.072;22.192;2023-04-03T13:47:49;99562.06;;;9.28;65.66
68634;BME280;55625;47.072;22.192;2023-04-03T13:50:24;99558.41;;;9.56;65.49
68634;BME280;55625;47.072;22.192;2023-04-03T13:55:30;99551.31;;;9.23;64.96
68634;BME280;55625;47.072;22.192;2023-04-03T13:57:58;99548.81;;;9.25;65.16
68634;BME280;55625;47.072;22.192;2023-04-03T14:03:30;99551.00;;;8.76;66.45
68634;BME280;55625;47.072;22.192;2023-04-03T14:05:56;99548.50;;;8.78;66.23
68634;BME280;55625;47.072;22.192;2023-04-03T14:08:22;99543.84;;;9.00;65.73
68634;BME280;55625;47.072;22.192;2023-04-03T14:10:49;99540.66;;;9.27;68.09
68634;BME280;55625;47.072;22.192;2023-04-03T14:13:18;99543.53;;;9.11;65.53
68634;BME280;55625;47.072;22.192;2023-04-03T14:15:46;99534.72;;;9.09;65.89
68634;BME280;55625;47.072;22.192;2023-04-03T14:18:21;99539.34;;;9.02;65.22
68634;BME280;55625;47.072;22.192;2023-04-03T14:20:49;99549.09;;;9.14;65.70
68634;BME280;55625;47.072;22.192;2023-04-03T14:23:15;99535.41;;;9.13;64.97
68634;BME280;55625;47.072;22.192;2023-04-03T14:25:41;99541.34;;;9.31;66.59
68634;BME280;55625;47.072;22.192;2023-04-03T14:28:20;99541.84;;;9.13;64.47
68634;BME280;55625;47.072;22.192;2023-04-03T14:30:49;99545.66;;;8.94;64.82
68634;BME280;55625;47.072;22.192;2023-04-03T14:33:20;99544.97;;;8.90;66.60
68634;BME280;55625;47.072;22.192;2023-04-03T14:35:47;99532.75;;;8.93;66.46
68634;BME280;55625;47.072;22.192;2023-04-03T14:38:33;99540.97;;;8.87;66.44
68634;BME280;55625;47.072;22.192;2023-04-03T14:40:59;99545.47;;;8.85;66.46
68634;BME280;55625;47.072;22.192;2023-04-03T14:43:25;99542.06;;;8.77;66.27
68634;BME280;55625;47.072;22.192;2023-04-03T14:45:52;99543.44;;;8.85;66.17